Bowthorpe, United Kingdom
Current Conditions -  °F | °C
As of 10:20 PM on Thursday 23 Oct 2014 (Local Time) from EGSH Reporting Station
Broken Clouds Broken Clouds  
Wind Chill: 57°   Ceiling: 1600
Heat Index: 57°   Visibility: 6mi
Dew Point: 55°   Wind: 10mph
Humidity: 94%   Direction: 200°SSW
Pressure: 30"   Gusts: NA
Location:  52.64°N, 1.22°E
Report Text: EGSH 232120Z AUTO 20009KT 150V230 9999 FEW012/// BKN016/// BKN040/// 14/13 Q1016
Loading
Personal Weather Stations






























Interactive Weather Map
Tropical Storm Tracking
New forecast layout! Learn more

10-Day Weather Forecast

Advertisements
Track Severe Weather on mobile